createdAt,value
2019-04-01T00:00:42.985Z,29.54
2019-04-01T00:01:28.808Z,29.49
2019-04-01T00:02:07.123Z,29.55
2019-04-01T00:02:43.552Z,29.55
2019-04-01T00:03:21.644Z,29.53
2019-04-01T00:03:57.569Z,29.58
2019-04-01T00:04:33.837Z,29.54
2019-04-01T00:05:14.657Z,29.60
2019-04-01T00:05:51.264Z,29.60
2019-04-01T00:06:27.243Z,29.57
2019-04-01T00:07:03.845Z,29.61
2019-04-01T00:07:40.392Z,29.61
2019-04-01T00:08:17.095Z,29.62
2019-04-01T00:08:53.693Z,29.62
2019-04-01T00:09:30.629Z,29.64
2019-04-01T00:10:06.772Z,29.64
2019-04-01T00:10:45.756Z,29.66
2019-04-01T00:11:22.515Z,29.66
2019-04-01T00:11:59.804Z,29.68
2019-04-01T00:12:35.883Z,29.68
2019-04-01T00:13:12.390Z,29.66
2019-04-01T00:13:49.142Z,29.71
2019-04-01T00:14:26.389Z,29.71
2019-04-01T00:15:04.501Z,29.75
2019-04-01T00:15:41.059Z,29.75
2019-04-01T00:16:23.311Z,29.80
2019-04-01T00:17:00.109Z,29.80
2019-04-01T00:17:36.663Z,29.81
2019-04-01T00:18:13.170Z,29.84
2019-04-01T00:19:02.907Z,29.80
2019-04-01T00:19:36.218Z,29.80
2019-04-01T00:20:13.365Z,29.82
2019-04-01T00:20:50.130Z,29.83
2019-04-01T00:21:26.870Z,29.83
2019-04-01T00:22:03.615Z,29.88
2019-04-01T00:22:41.575Z,29.89
2019-04-01T00:23:18.656Z,29.89
2019-04-01T00:23:54.803Z,29.88
2019-04-01T00:24:32.300Z,29.91
2019-04-01T00:25:11.773Z,29.90
2019-04-01T00:25:48.401Z,29.88
2019-04-01T00:26:26.694Z,29.93
2019-04-01T00:27:03.367Z,29.93
2019-04-01T00:27:40.234Z,29.92
2019-04-01T00:28:16.310Z,29.93
2019-04-01T00:28:53.022Z,29.94
2019-04-01T00:29:29.197Z,29.92
2019-04-01T00:30:05.256Z,29.92
2019-04-01T00:30:42.582Z,29.97
2019-04-01T00:31:18.616Z,29.97
2019-04-01T00:31:55.094Z,29.94
2019-04-01T00:32:32.135Z,30.00
2019-04-01T00:33:09.000Z,30.00
2019-04-01T00:33:45.493Z,30.03
2019-04-01T00:34:24.195Z,30.00
2019-04-01T00:35:00.917Z,30.00
2019-04-01T00:35:36.944Z,30.05
2019-04-01T00:36:13.743Z,30.07
2019-04-01T00:36:51.344Z,30.03
2019-04-01T00:37:47.213Z,30.08
2019-04-01T00:38:23.202Z,30.08
2019-04-01T00:38:59.279Z,30.08
2019-04-01T00:39:36.874Z,30.04
2019-04-01T00:40:13.487Z,30.11
2019-04-01T00:40:50.368Z,30.11
2019-04-01T00:41:26.393Z,30.12
2019-04-01T00:42:21.446Z,30.11
2019-04-01T00:43:19.635Z,30.11
2019-04-01T00:43:57.978Z,30.11
2019-04-01T00:44:34.575Z,30.14
2019-04-01T00:45:13.842Z,30.21
2019-04-01T00:45:50.993Z,30.17
2019-04-01T00:46:27.061Z,30.17
2019-04-01T00:47:03.334Z,30.20
2019-04-01T00:47:39.843Z,30.26
2019-04-01T00:48:17.330Z,30.26
2019-04-01T00:48:53.980Z,30.26
2019-04-01T00:49:30.728Z,30.29
2019-04-01T00:50:07.473Z,30.31
2019-04-01T00:50:44.081Z,30.30
2019-04-01T00:51:20.415Z,30.32
2019-04-01T00:51:56.715Z,30.31
2019-04-01T00:52:33.289Z,30.31
2019-04-01T00:53:09.188Z,30.33
2019-04-01T00:53:46.415Z,30.31
2019-04-01T00:54:22.491Z,30.35
2019-04-01T00:54:58.580Z,30.35
2019-04-01T00:55:35.908Z,30.36
2019-04-01T00:56:14.175Z,30.36
2019-04-01T00:56:50.938Z,30.37
2019-04-01T00:57:27.283Z,30.37
2019-04-01T00:58:04.095Z,30.38
2019-04-01T00:58:42.126Z,30.38
2019-04-01T00:59:18.366Z,30.39
2019-04-01T00:59:55.087Z,30.38
2019-04-01T01:00:32.736Z,30.38
2019-04-01T01:01:09.955Z,30.40
2019-04-01T01:01:47.317Z,30.40
2019-04-01T01:02:25.359Z,30.41
2019-04-01T01:03:02.157Z,30.38
2019-04-01T01:03:38.077Z,30.44
2019-04-01T01:04:14.578Z,30.44
2019-04-01T01:04:50.599Z,30.42
2019-04-01T01:05:29.379Z,30.48
2019-04-01T01:06:10.040Z,30.48
2019-04-01T01:06:46.709Z,30.47
2019-04-01T01:07:23.069Z,30.40
2019-04-01T01:07:59.375Z,30.50
2019-04-01T01:08:37.624Z,30.49
2019-04-01T01:09:14.368Z,30.54
2019-04-01T01:09:51.916Z,30.54
2019-04-01T01:10:27.997Z,30.52
2019-04-01T01:11:04.245Z,30.58
2019-04-01T01:11:41.123Z,30.58
2019-04-01T01:12:17.959Z,30.60
2019-04-01T01:12:56.009Z,30.60
2019-04-01T01:13:32.719Z,30.60
2019-04-01T01:14:09.124Z,30.61
2019-04-01T01:14:46.953Z,30.63
2019-04-01T01:15:25.191Z,30.64
2019-04-01T01:16:01.135Z,30.59
2019-04-01T01:16:37.778Z,30.59
2019-04-01T01:17:14.058Z,30.64
2019-04-01T01:17:51.463Z,30.63
2019-04-01T01:18:27.965Z,30.63
2019-04-01T01:19:04.350Z,30.59
2019-04-01T01:19:40.889Z,30.59
2019-04-01T01:20:17.258Z,30.66
2019-04-01T01:20:53.782Z,30.66
2019-04-01T01:21:29.841Z,30.67
2019-04-01T01:22:09.732Z,30.68
2019-04-01T01:22:47.813Z,30.69
2019-04-01T01:23:26.743Z,30.68
2019-04-01T01:24:03.344Z,30.68
2019-04-01T01:24:39.707Z,30.65
2019-04-01T01:25:16.447Z,30.72
2019-04-01T01:25:52.817Z,30.72
2019-04-01T01:26:31.550Z,30.72
2019-04-01T01:27:09.617Z,30.72
2019-04-01T01:27:46.668Z,30.74
2019-04-01T01:28:23.253Z,30.75
2019-04-01T01:29:02.585Z,30.76
2019-04-01T01:29:40.048Z,30.76
2019-04-01T01:30:16.284Z,30.77
2019-04-01T01:30:52.222Z,30.80
2019-04-01T01:31:29.880Z,30.80
2019-04-01T01:32:07.462Z,30.80
2019-04-01T01:32:52.625Z,30.80
2019-04-01T01:33:29.761Z,30.80
2019-04-01T01:34:06.737Z,30.77
2019-04-01T01:35:09.202Z,30.80
2019-04-01T01:35:48.610Z,30.87
2019-04-01T01:36:24.734Z,30.87
2019-04-01T01:37:03.673Z,30.88
2019-04-01T01:37:40.637Z,30.91
2019-04-01T01:38:17.794Z,30.91
2019-04-01T01:39:06.815Z,30.98
2019-04-01T01:39:47.957Z,31.00
2019-04-01T01:40:24.198Z,31.01
2019-04-01T01:41:01.303Z,31.02
2019-04-01T01:41:41.277Z,30.97
2019-04-01T01:42:18.199Z,31.04
2019-04-01T01:42:54.324Z,31.07
2019-04-01T01:43:30.718Z,31.09
2019-04-01T01:44:11.050Z,31.10
2019-04-01T01:44:50.525Z,31.11
2019-04-01T01:45:27.434Z,31.14
2019-04-01T01:46:04.247Z,31.17
2019-04-01T01:46:59.272Z,31.20
2019-04-01T01:47:37.514Z,31.20
2019-04-01T01:48:13.896Z,31.22
2019-04-01T01:49:00.988Z,31.22
2019-04-01T01:49:42.757Z,31.24
2019-04-01T01:50:19.285Z,31.18
2019-04-01T01:50:56.447Z,31.24
2019-04-01T01:51:38.400Z,31.24
2019-04-01T01:52:16.421Z,31.21
2019-04-01T01:52:54.111Z,31.24
2019-04-01T01:53:30.641Z,31.26
2019-04-01T01:54:09.738Z,31.25
2019-04-01T01:54:51.150Z,31.24
2019-04-01T01:55:30.349Z,31.26
2019-04-01T01:56:08.385Z,31.24
2019-04-01T01:56:44.800Z,31.26
2019-04-01T01:57:23.371Z,31.26
2019-04-01T01:58:02.217Z,31.24
2019-04-01T01:58:38.963Z,31.24
2019-04-01T01:59:36.485Z,31.25
2019-04-01T02:00:16.372Z,31.24
2019-04-01T02:00:54.194Z,31.24
2019-04-01T02:01:30.484Z,31.24
2019-04-01T02:02:08.021Z,31.26
2019-04-01T02:02:44.866Z,31.26
2019-04-01T02:03:22.289Z,31.28
2019-04-01T02:04:01.071Z,31.28
2019-04-01T02:04:38.940Z,31.23
2019-04-01T02:05:16.397Z,31.35
2019-04-01T02:06:05.495Z,31.35
2019-04-01T02:06:41.652Z,31.36
2019-04-01T02:07:18.442Z,31.36
2019-04-01T02:07:55.570Z,31.45
2019-04-01T02:08:47.284Z,31.45
2019-04-01T02:09:24.836Z,31.50
2019-04-01T02:10:01.207Z,31.50
2019-04-01T02:10:39.757Z,31.46
2019-04-01T02:11:33.803Z,31.52
2019-04-01T02:12:12.018Z,31.55
2019-04-01T02:12:48.131Z,31.57
2019-04-01T02:13:28.449Z,31.60
2019-04-01T02:14:06.072Z,31.63
2019-04-01T02:14:55.068Z,31.66
2019-04-01T02:15:35.193Z,31.68
2019-04-01T02:16:17.542Z,31.71
2019-04-01T02:16:53.649Z,31.77
2019-04-01T02:17:30.333Z,31.78
2019-04-01T02:18:17.659Z,31.82
2019-04-01T02:20:16.842Z,31.89
2019-04-01T02:20:54.738Z,31.94
2019-04-01T02:21:34.396Z,31.99
2019-04-01T02:22:17.996Z,32.05
2019-04-01T02:22:54.269Z,32.09
2019-04-01T02:23:33.824Z,32.15
2019-04-01T02:24:12.319Z,32.18
2019-04-01T02:24:49.084Z,32.22
2019-04-01T02:25:28.681Z,32.26
2019-04-01T02:26:14.021Z,32.31
2019-04-01T02:26:50.425Z,32.35
2019-04-01T02:27:27.791Z,32.39
2019-04-01T02:28:04.121Z,32.45
2019-04-01T02:28:43.585Z,32.50
2019-04-01T02:29:21.264Z,32.51
2019-04-01T02:29:57.987Z,32.53
2019-04-01T02:30:36.615Z,32.54
2019-04-01T02:31:13.742Z,32.56
2019-04-01T02:31:49.652Z,32.61
2019-04-01T02:32:25.536Z,32.61
2019-04-01T02:33:02.127Z,32.63
2019-04-01T02:33:38.624Z,32.63
2019-04-01T02:34:14.683Z,32.67
2019-04-01T02:34:51.032Z,32.69
2019-04-01T02:35:27.515Z,32.70
2019-04-01T02:36:03.726Z,32.69
2019-04-01T02:36:40.451Z,32.72
2019-04-01T02:37:17.776Z,32.76
2019-04-01T02:37:54.131Z,32.74
2019-04-01T02:38:30.167Z,32.79
2019-04-01T02:39:09.707Z,32.81
2019-04-01T02:39:45.812Z,32.79
2019-04-01T02:40:23.242Z,32.80
2019-04-01T02:40:59.259Z,32.80
2019-04-01T02:41:35.862Z,32.78
2019-04-01T02:42:12.473Z,32.80
2019-04-01T02:42:53.976Z,32.82
2019-04-01T02:43:33.736Z,32.82
2019-04-01T02:44:10.460Z,32.84
2019-04-01T02:44:46.415Z,32.82
2019-04-01T02:45:23.619Z,32.83
2019-04-01T02:46:01.457Z,32.82
2019-04-01T02:46:37.458Z,32.83
2019-04-01T02:47:17.489Z,32.79
2019-04-01T02:47:54.237Z,32.73
2019-04-01T02:48:30.744Z,32.74
2019-04-01T02:49:06.747Z,32.79
2019-04-01T02:49:43.227Z,32.79
2019-04-01T02:50:19.387Z,32.81
2019-04-01T02:50:55.437Z,32.82
2019-04-01T02:51:31.575Z,32.80
2019-04-01T02:52:07.551Z,32.84
2019-04-01T02:52:51.825Z,32.86
2019-04-01T02:53:27.862Z,32.89
2019-04-01T02:54:04.881Z,32.93
2019-04-01T02:54:41.509Z,32.95
2019-04-01T02:55:17.474Z,32.94
2019-04-01T02:55:54.146Z,32.95
2019-04-01T02:56:34.209Z,32.95
2019-04-01T02:57:11.903Z,32.94
2019-04-01T02:57:48.736Z,32.88
2019-04-01T02:58:25.273Z,32.88
2019-04-01T02:59:01.798Z,32.85
2019-04-01T02:59:38.205Z,32.81
2019-04-01T03:00:14.987Z,32.75
2019-04-01T03:00:51.653Z,32.71
2019-04-01T03:01:27.723Z,32.66
2019-04-01T03:02:04.442Z,32.61
2019-04-01T03:02:41.243Z,32.58
2019-04-01T03:03:18.029Z,32.53
2019-04-01T03:03:55.922Z,32.48
2019-04-01T03:04:39.548Z,32.43
2019-04-01T03:05:16.201Z,32.40
2019-04-01T03:05:52.945Z,32.37
2019-04-01T03:06:29.015Z,32.36
2019-04-01T03:07:05.157Z,32.33
2019-04-01T03:07:42.758Z,32.33
2019-04-01T03:08:27.983Z,32.32
2019-04-01T03:09:07.714Z,32.28
2019-04-01T03:09:54.199Z,32.26
2019-04-01T03:10:35.744Z,32.24
2019-04-01T03:11:12.584Z,32.22
2019-04-01T03:11:48.534Z,32.19
2019-04-01T03:12:25.206Z,32.17
2019-04-01T03:13:01.966Z,32.16
2019-04-01T03:13:39.125Z,32.15
2019-04-01T03:14:16.887Z,32.14
2019-04-01T03:14:59.988Z,32.13
2019-04-01T03:15:36.631Z,32.13
2019-04-01T03:16:13.279Z,32.13
2019-04-01T03:16:49.579Z,32.11
2019-04-01T03:17:25.981Z,32.14
2019-04-01T03:18:03.365Z,32.14
2019-04-01T03:18:42.734Z,32.14
2019-04-01T03:19:29.050Z,32.16
2019-04-01T03:20:05.081Z,32.18
2019-04-01T03:20:41.219Z,32.20
2019-04-01T03:21:17.321Z,32.20
2019-04-01T03:21:54.155Z,32.23
2019-04-01T03:22:30.298Z,32.23
2019-04-01T03:23:06.976Z,32.22
2019-04-01T03:23:44.672Z,32.24
2019-04-01T03:24:21.065Z,32.24
2019-04-01T03:24:57.916Z,32.25
2019-04-01T03:25:34.178Z,32.25
2019-04-01T03:26:10.125Z,32.25
2019-04-01T03:26:46.958Z,32.27
2019-04-01T03:27:23.756Z,32.26
2019-04-01T03:28:03.024Z,32.30
2019-04-01T03:28:39.232Z,32.30
2019-04-01T03:29:15.861Z,32.30
2019-04-01T03:29:53.870Z,32.29
2019-04-01T03:30:31.184Z,32.27
2019-04-01T03:31:08.771Z,32.28
2019-04-01T03:31:46.516Z,32.27
2019-04-01T03:32:25.443Z,32.21
2019-04-01T03:33:06.207Z,32.20
2019-04-01T03:33:44.981Z,32.19
2019-04-01T03:34:24.190Z,32.14
2019-04-01T03:35:01.725Z,32.10
2019-04-01T03:35:39.169Z,32.06
2019-04-01T03:36:18.830Z,32.04
2019-04-01T03:36:55.797Z,32.03
2019-04-01T03:37:32.873Z,31.99
2019-04-01T03:38:10.141Z,31.96
2019-04-01T03:38:46.977Z,31.95
2019-04-01T03:39:25.679Z,31.92
2019-04-01T03:40:02.240Z,31.88
2019-04-01T03:40:38.207Z,31.81
2019-04-01T03:41:15.082Z,31.80
2019-04-01T03:41:51.025Z,31.75
2019-04-01T03:42:27.331Z,31.71
2019-04-01T03:43:03.487Z,31.67
2019-04-01T03:43:39.661Z,31.61
2019-04-01T03:44:17.364Z,31.52
2019-04-01T03:44:55.347Z,31.47
2019-04-01T03:45:31.859Z,31.42
2019-04-01T03:46:08.552Z,31.34
2019-04-01T03:46:44.509Z,31.26
2019-04-01T03:47:20.757Z,31.22
2019-04-01T03:47:59.977Z,31.18
2019-04-01T03:48:37.228Z,31.15
2019-04-01T03:49:13.208Z,31.13
2019-04-01T03:49:50.025Z,31.10
2019-04-01T03:50:26.561Z,31.10
2019-04-01T03:51:02.624Z,31.08
2019-04-01T03:51:38.898Z,31.06
2019-04-01T03:52:17.077Z,31.02
2019-04-01T03:52:54.426Z,31.00
2019-04-01T03:53:30.690Z,30.99
2019-04-01T03:54:07.784Z,30.93
2019-04-01T03:54:45.384Z,30.93
2019-04-01T03:55:21.360Z,30.88
2019-04-01T03:55:57.883Z,30.88
2019-04-01T03:56:38.723Z,30.92
2019-04-01T03:57:16.300Z,30.92
2019-04-01T03:57:52.401Z,30.92
2019-04-01T03:58:29.230Z,30.97
2019-04-01T03:59:10.270Z,30.99
2019-04-01T03:59:50.456Z,30.99
2019-04-01T04:00:26.964Z,31.04
2019-04-01T04:01:04.059Z,30.99
2019-04-01T04:01:40.343Z,31.06
2019-04-01T04:02:17.090Z,31.07
2019-04-01T04:02:55.094Z,31.06
2019-04-01T04:03:31.872Z,31.20
2019-04-01T04:04:07.867Z,31.20
2019-04-01T04:04:43.786Z,31.22
2019-04-01T04:05:20.500Z,31.22
2019-04-01T04:05:58.284Z,31.28
2019-04-01T04:06:37.418Z,31.28
2019-04-01T04:07:16.540Z,31.34
2019-04-01T04:07:58.071Z,31.39
2019-04-01T04:08:34.249Z,31.43
2019-04-01T04:09:10.297Z,31.44
2019-04-01T04:09:47.750Z,31.47
2019-04-01T04:10:24.631Z,31.44
2019-04-01T04:11:01.133Z,31.45
2019-04-01T04:11:50.749Z,31.51
2019-04-01T04:12:29.122Z,31.50
2019-04-01T04:13:05.286Z,31.49
2019-04-01T04:13:45.075Z,31.48
2019-04-01T04:14:22.773Z,31.49
2019-04-01T04:14:58.677Z,31.52
2019-04-01T04:15:34.719Z,31.56
2019-04-01T04:16:15.107Z,31.55
2019-04-01T04:16:51.855Z,31.58
2019-04-01T04:17:28.718Z,31.61
2019-04-01T04:18:05.293Z,31.61
2019-04-01T04:18:41.437Z,31.62
2019-04-01T04:19:19.505Z,31.62
2019-04-01T04:19:57.396Z,31.64
2019-04-01T04:20:33.716Z,31.65
2019-04-01T04:21:09.779Z,31.63
2019-04-01T04:21:48.655Z,31.63
2019-04-01T04:22:24.842Z,31.63
2019-04-01T04:23:00.954Z,31.59
2019-04-01T04:23:42.058Z,31.55
2019-04-01T04:24:29.672Z,31.53
2019-04-01T04:25:06.999Z,31.49
2019-04-01T04:25:45.143Z,31.43
2019-04-01T04:26:23.855Z,31.41
2019-04-01T04:27:01.481Z,31.36
2019-04-01T04:27:37.755Z,31.32
2019-04-01T04:28:15.891Z,31.29
2019-04-01T04:28:56.182Z,31.28
2019-04-01T04:29:38.999Z,31.23
2019-04-01T04:30:19.322Z,31.18
2019-04-01T04:31:02.773Z,31.15
2019-04-01T04:31:41.808Z,31.09
2019-04-01T04:32:19.027Z,31.02
2019-04-01T04:33:00.015Z,31.02
2019-04-01T04:33:36.069Z,31.01
2019-04-01T04:34:12.290Z,31.01
2019-04-01T04:34:48.319Z,30.98
2019-04-01T04:35:27.902Z,30.99
2019-04-01T04:36:03.956Z,31.00
2019-04-01T04:36:42.525Z,31.00
2019-04-01T04:37:20.707Z,30.98
2019-04-01T04:38:05.109Z,30.95
2019-04-01T04:38:42.287Z,30.95
2019-04-01T04:39:19.230Z,31.00
2019-04-01T04:39:55.899Z,31.04
2019-04-01T04:40:33.994Z,31.04
2019-04-01T04:41:11.447Z,31.06
2019-04-01T04:41:54.597Z,31.05
2019-04-01T04:42:31.528Z,31.08
2019-04-01T04:43:09.285Z,31.08
2019-04-01T04:43:47.985Z,31.13
2019-04-01T04:44:24.151Z,31.14
2019-04-01T04:45:00.437Z,31.08
2019-04-01T04:45:37.827Z,31.14
2019-04-01T04:46:13.898Z,31.18
2019-04-01T04:46:50.770Z,31.18
2019-04-01T04:47:29.425Z,31.19
2019-04-01T04:48:08.522Z,31.19
2019-04-01T04:48:44.543Z,31.16
2019-04-01T04:49:26.070Z,31.22
2019-04-01T04:50:04.570Z,31.21
2019-04-01T04:50:41.117Z,31.23
2019-04-01T04:51:20.172Z,31.27
2019-04-01T04:51:56.373Z,31.27
2019-04-01T04:52:32.463Z,31.23
2019-04-01T04:53:10.655Z,31.28
2019-04-01T04:53:47.656Z,31.25
2019-04-01T04:54:24.192Z,31.31
2019-04-01T04:55:02.632Z,31.30
2019-04-01T04:55:39.419Z,31.34
2019-04-01T04:56:18.074Z,31.37
2019-04-01T04:56:54.379Z,31.36
2019-04-01T04:57:31.208Z,31.41
2019-04-01T04:58:08.687Z,31.43
2019-04-01T04:58:46.493Z,31.44
2019-04-01T04:59:23.322Z,31.43
2019-04-01T05:00:00.826Z,31.45
2019-04-01T05:00:37.637Z,31.49
2019-04-01T05:01:16.652Z,31.48
2019-04-01T05:01:53.401Z,31.50
2019-04-01T05:02:30.483Z,31.53
2019-04-01T05:03:07.688Z,31.54
2019-04-01T05:03:46.774Z,31.57
2019-04-01T05:04:23.302Z,31.58
2019-04-01T05:05:01.497Z,31.60
2019-04-01T05:05:39.375Z,31.62
2019-04-01T05:06:18.291Z,31.61
2019-04-01T05:06:55.033Z,31.60
2019-04-01T05:07:32.027Z,31.58
2019-04-01T05:08:08.930Z,31.56
2019-04-01T05:08:45.013Z,31.53
2019-04-01T05:09:21.754Z,31.49
2019-04-01T05:09:58.602Z,31.45
2019-04-01T05:10:39.827Z,31.44
2019-04-01T05:11:15.847Z,31.40
2019-04-01T05:11:53.421Z,31.35
2019-04-01T05:12:31.746Z,31.30
2019-04-01T05:13:07.822Z,31.30
2019-04-01T05:13:45.676Z,31.31
2019-04-01T05:14:23.511Z,31.32
2019-04-01T05:15:04.057Z,31.31
2019-04-01T05:15:41.071Z,31.32
2019-04-01T05:16:17.970Z,31.33
2019-04-01T05:16:54.803Z,31.34
2019-04-01T05:17:38.134Z,31.37
2019-04-01T05:18:16.525Z,31.43
2019-04-01T05:18:54.142Z,31.48
2019-04-01T05:19:31.842Z,31.50
2019-04-01T05:20:10.395Z,31.57
2019-04-01T05:20:49.097Z,31.58
2019-04-01T05:21:28.372Z,31.65
2019-04-01T05:22:05.584Z,31.69
2019-04-01T05:22:42.556Z,31.74
2019-04-01T05:23:19.407Z,31.77
2019-04-01T05:24:00.161Z,31.77
2019-04-01T05:24:40.172Z,31.82
2019-04-01T05:25:25.238Z,31.85
2019-04-01T05:26:04.577Z,31.89
2019-04-01T05:26:44.289Z,31.88
2019-04-01T05:27:25.161Z,31.92
2019-04-01T05:28:05.985Z,31.93
2019-04-01T05:28:45.186Z,31.95
2019-04-01T05:29:22.873Z,31.98
2019-04-01T05:29:59.957Z,32.03
2019-04-01T05:30:37.943Z,32.04
2019-04-01T05:31:15.005Z,32.07
2019-04-01T05:31:52.570Z,32.13
2019-04-01T05:32:32.560Z,32.17
2019-04-01T05:33:11.915Z,32.21
2019-04-01T05:33:55.561Z,32.25
2019-04-01T05:34:36.638Z,32.29
2019-04-01T05:35:14.914Z,32.33
2019-04-01T05:35:51.560Z,32.38
2019-04-01T05:36:28.115Z,32.42
2019-04-01T05:37:08.640Z,32.49
2019-04-01T05:37:47.412Z,32.54
2019-04-01T05:38:24.259Z,32.57
2019-04-01T05:39:00.222Z,32.65
2019-04-01T05:39:37.660Z,32.67
2019-04-01T05:40:14.898Z,32.71
2019-04-01T05:40:52.171Z,32.73
2019-04-01T05:41:30.092Z,32.74
2019-04-01T05:42:06.861Z,32.75
2019-04-01T05:42:45.837Z,32.74
2019-04-01T05:43:24.140Z,32.71
2019-04-01T05:44:02.398Z,32.73
2019-04-01T05:44:38.849Z,32.73
2019-04-01T05:45:15.541Z,32.69
2019-04-01T05:46:00.479Z,32.68
2019-04-01T05:46:45.519Z,32.66
2019-04-01T05:47:25.322Z,32.62
2019-04-01T05:48:01.257Z,32.56
2019-04-01T05:48:37.480Z,32.52
2019-04-01T05:49:13.418Z,32.41
2019-04-01T05:49:50.912Z,32.36
2019-04-01T05:50:27.022Z,32.29
2019-04-01T05:51:04.600Z,32.21
2019-04-01T05:51:44.969Z,32.18
2019-04-01T05:52:21.233Z,32.11
2019-04-01T05:52:57.675Z,32.04
2019-04-01T05:53:33.767Z,31.90
2019-04-01T05:54:12.943Z,31.80
2019-04-01T05:54:49.002Z,31.71
2019-04-01T05:55:25.088Z,31.65
2019-04-01T05:56:01.146Z,31.57
2019-04-01T05:56:37.422Z,31.46
2019-04-01T05:57:15.965Z,31.38
2019-04-01T05:57:53.116Z,31.28
2019-04-01T05:58:30.166Z,31.14
2019-04-01T05:59:07.410Z,31.04
2019-04-01T05:59:43.863Z,30.98
2019-04-01T06:00:25.641Z,30.93
2019-04-01T06:01:08.868Z,30.85
2019-04-01T06:01:46.774Z,30.82
2019-04-01T06:02:25.909Z,30.68
2019-04-01T06:03:02.022Z,30.59
2019-04-01T06:03:38.707Z,30.63
2019-04-01T06:04:14.748Z,30.58
2019-04-01T06:04:50.668Z,30.58
2019-04-01T06:05:26.598Z,30.51
2019-04-01T06:06:02.838Z,30.46
2019-04-01T06:06:38.958Z,30.32
2019-04-01T06:07:23.270Z,30.32
2019-04-01T06:07:59.354Z,30.36
2019-04-01T06:08:38.517Z,30.29
2019-04-01T06:09:16.993Z,30.29
2019-04-01T06:09:53.013Z,30.23
2019-04-01T06:10:29.154Z,30.23
2019-04-01T06:11:05.383Z,30.17
2019-04-01T06:11:45.514Z,30.14
2019-04-01T06:12:25.835Z,30.17
2019-04-01T06:13:03.120Z,30.16
2019-04-01T06:13:44.510Z,30.14
2019-04-01T06:14:20.589Z,30.25
2019-04-01T06:14:57.584Z,30.25
2019-04-01T06:15:33.740Z,30.28
2019-04-01T06:16:09.799Z,30.36
2019-04-01T06:16:50.677Z,30.36
2019-04-01T06:17:26.882Z,30.41
2019-04-01T06:18:03.690Z,30.51
2019-04-01T06:18:40.907Z,30.56
2019-04-01T06:19:18.069Z,30.56
2019-04-01T06:19:56.401Z,30.65
2019-04-01T06:20:33.986Z,30.65
2019-04-01T06:21:10.101Z,30.64
2019-04-01T06:21:47.158Z,30.73
2019-04-01T06:22:25.941Z,30.78
2019-04-01T06:23:02.012Z,30.89
2019-04-01T06:23:38.139Z,30.89
2019-04-01T06:24:14.524Z,30.94
2019-04-01T06:24:50.519Z,30.98
2019-04-01T06:25:29.499Z,31.04
2019-04-01T06:26:08.268Z,31.09
2019-04-01T06:26:49.359Z,31.21
2019-04-01T06:27:32.052Z,31.21
2019-04-01T06:28:08.918Z,31.34
2019-04-01T06:28:47.841Z,31.34
2019-04-01T06:29:23.900Z,31.38
2019-04-01T06:30:10.378Z,31.45
2019-04-01T06:31:04.953Z,31.52
2019-04-01T06:31:42.301Z,31.59
2019-04-01T06:32:18.570Z,31.69
2019-04-01T06:32:54.606Z,31.76
2019-04-01T06:33:33.006Z,31.82
2019-04-01T06:34:12.272Z,31.88
2019-04-01T06:34:52.973Z,31.95
2019-04-01T06:35:47.965Z,32.02
2019-04-01T06:36:25.303Z,32.08
2019-04-01T06:37:03.499Z,32.16
2019-04-01T06:37:49.882Z,32.19
2019-04-01T06:38:39.948Z,32.25
2019-04-01T06:39:17.920Z,32.28
2019-04-01T06:39:55.342Z,32.32
2019-04-01T06:40:33.068Z,32.36
2019-04-01T06:41:15.480Z,32.36
2019-04-01T06:41:51.708Z,32.41
2019-04-01T06:42:33.166Z,32.46
2019-04-01T06:43:10.793Z,32.52
2019-04-01T06:43:59.056Z,32.56
2019-04-01T06:44:35.698Z,32.62
2019-04-01T06:45:11.789Z,32.69
2019-04-01T06:45:51.140Z,32.74
2019-04-01T06:46:34.317Z,32.80
2019-04-01T06:47:10.550Z,32.84
2019-04-01T06:47:46.642Z,32.92
2019-04-01T06:48:22.752Z,32.94
2019-04-01T06:49:02.203Z,32.93
2019-04-01T06:49:38.364Z,32.95
2019-04-01T06:50:15.736Z,32.95
2019-04-01T06:50:54.769Z,32.94
2019-04-01T06:51:30.889Z,32.93
2019-04-01T06:52:10.144Z,32.96
2019-04-01T06:52:47.688Z,32.96
2019-04-01T06:53:25.028Z,32.96
2019-04-01T06:54:02.717Z,32.95
2019-04-01T06:54:43.272Z,32.96
2019-04-01T06:55:26.141Z,32.95
2019-04-01T06:56:11.823Z,32.95
2019-04-01T06:56:57.434Z,32.96
2019-04-01T06:57:40.677Z,32.96
2019-04-01T06:58:22.922Z,32.95
2019-04-01T06:59:00.567Z,32.97
2019-04-01T06:59:38.874Z,32.97
2019-04-01T07:00:21.610Z,32.96
2019-04-01T07:01:04.236Z,32.91
2019-04-01T07:02:08.520Z,32.92
2019-04-01T07:02:48.352Z,32.89
2019-04-01T07:03:27.388Z,32.92
2019-04-01T07:04:08.220Z,32.91
2019-04-01T07:04:45.424Z,32.92
2019-04-01T07:05:22.916Z,32.90
2019-04-01T07:06:00.346Z,32.91
2019-04-01T07:06:44.693Z,32.88
2019-04-01T07:07:21.376Z,32.85
2019-04-01T07:08:00.779Z,32.87
2019-04-01T07:08:39.153Z,32.85
2019-04-01T07:09:22.650Z,32.85
2019-04-01T07:10:04.911Z,32.84
2019-04-01T07:10:44.365Z,32.85
2019-04-01T07:11:32.742Z,32.87
2019-04-01T07:12:13.533Z,32.88
2019-04-01T07:12:52.830Z,32.90
2019-04-01T07:13:34.300Z,32.93
2019-04-01T07:14:16.646Z,32.92
2019-04-01T07:14:54.347Z,32.91
2019-04-01T07:15:35.775Z,32.91
2019-04-01T07:16:23.424Z,32.90
2019-04-01T07:17:02.234Z,32.90
2019-04-01T07:17:39.152Z,32.88
2019-04-01T07:18:19.048Z,32.89
2019-04-01T07:19:00.663Z,32.89
2019-04-01T07:19:40.606Z,32.90
2019-04-01T07:20:22.493Z,32.92
2019-04-01T07:21:07.809Z,32.92
2019-04-01T07:21:49.566Z,32.94
2019-04-01T07:22:27.920Z,32.94
2019-04-01T07:23:11.872Z,32.94
2019-04-01T07:23:51.446Z,32.97
2019-04-01T07:24:28.889Z,32.97
2019-04-01T07:25:09.383Z,33.00
2019-04-01T07:25:45.431Z,33.03
2019-04-01T07:26:22.351Z,33.13
2019-04-01T07:26:59.507Z,33.24
2019-04-01T07:27:38.937Z,33.33
2019-04-01T07:28:15.150Z,33.43
2019-04-01T07:29:14.661Z,33.51
2019-04-01T07:29:50.604Z,33.58
2019-04-01T07:30:33.023Z,33.73
2019-04-01T07:31:14.045Z,33.79
2019-04-01T07:31:52.878Z,33.88
2019-04-01T07:32:31.284Z,33.89
2019-04-01T07:33:12.224Z,33.92
2019-04-01T07:33:49.853Z,33.97
2019-04-01T07:34:26.457Z,34.03
2019-04-01T07:35:06.249Z,34.08
2019-04-01T07:35:46.532Z,34.14
2019-04-01T07:36:21.575Z,34.19
2019-04-01T07:37:00.783Z,34.26
2019-04-01T07:37:45.396Z,34.27
2019-04-01T07:38:22.766Z,34.30
2019-04-01T07:39:01.249Z,34.33
2019-04-01T07:39:38.341Z,34.38
2019-04-01T07:40:14.552Z,34.44
2019-04-01T07:40:51.162Z,34.48
2019-04-01T07:41:28.937Z,34.51
2019-04-01T07:42:06.452Z,34.52
2019-04-01T07:43:09.046Z,34.56
2019-04-01T07:43:48.280Z,34.60
2019-04-01T07:44:27.973Z,34.66
2019-04-01T07:45:16.918Z,34.75
2019-04-01T07:45:53.139Z,34.77
2019-04-01T07:46:33.152Z,34.73
2019-04-01T07:47:13.707Z,34.76
2019-04-01T07:47:54.905Z,34.74
2019-04-01T07:48:53.731Z,34.66
2019-04-01T07:49:30.921Z,34.59
2019-04-01T07:50:12.047Z,34.57
2019-04-01T07:50:46.607Z,34.54
2019-04-01T07:51:24.297Z,34.49
2019-04-01T07:52:01.330Z,34.47
2019-04-01T07:52:41.835Z,34.46
2019-04-01T07:53:18.299Z,34.50
2019-04-01T07:53:54.325Z,34.58
2019-04-01T07:54:32.016Z,34.61
2019-04-01T07:55:08.266Z,34.66
2019-04-01T07:55:44.923Z,34.73
2019-04-01T07:56:20.853Z,34.76
2019-04-01T07:56:56.957Z,34.78
2019-04-01T07:59:50.255Z,34.88
2019-04-01T08:00:39.420Z,34.88
2019-04-01T08:01:52.986Z,34.94
2019-04-01T08:02:49.288Z,35.00
2019-04-01T08:03:34.483Z,34.87
2019-04-01T08:04:23.859Z,34.79
2019-04-01T08:05:14.190Z,34.72
2019-04-01T08:05:54.835Z,34.64
2019-04-01T08:06:58.497Z,34.57
2019-04-01T08:07:59.525Z,34.50
2019-04-01T08:09:44.740Z,34.32
2019-04-01T08:10:27.448Z,34.23
2019-04-01T08:13:04.176Z,34.13
2019-04-01T08:13:42.860Z,33.95
2019-04-01T08:14:20.786Z,33.83
2019-04-01T08:15:14.563Z,33.76
2019-04-01T08:16:06.558Z,33.70
2019-04-01T08:16:48.702Z,33.60
2019-04-01T08:17:31.390Z,33.55
2019-04-01T08:18:10.895Z,33.48
2019-04-01T08:18:48.748Z,33.46
2019-04-01T08:19:57.703Z,33.43
2019-04-01T08:21:17.384Z,33.37
2019-04-01T08:22:11.305Z,33.28
2019-04-01T08:23:15.070Z,33.15
2019-04-01T08:24:13.775Z,33.10
2019-04-01T08:25:32.582Z,33.02
2019-04-01T08:29:30.505Z,32.78
2019-04-01T08:31:52.818Z,32.69
2019-04-01T08:32:31.139Z,32.67
2019-04-01T08:33:40.563Z,32.65